sensor_id;sensor_type;location;lat;lon;timestamp;temperature;humidity
11152;DHT22;5630;49.342;10.802;2023-06-04T00:00:37;13.40;96.20
11152;DHT22;5630;49.342;10.802;2023-06-04T00:03:03;13.30;96.20
11152;DHT22;5630;49.342;10.802;2023-06-04T00:05:28;13.30;96.40
11152;DHT22;5630;49.342;10.802;2023-06-04T00:07:54;13.20;96.40
11152;DHT22;5630;49.342;10.802;2023-06-04T00:10:19;13.20;96.40
11152;DHT22;5630;49.342;10.802;2023-06-04T00:12:45;13.10;96.40
11152;DHT22;5630;49.342;10.802;2023-06-04T00:15:11;13.00;96.40
11152;DHT22;5630;49.342;10.802;2023-06-04T00:17:36;13.00;96.60
11152;DHT22;5630;49.342;10.802;2023-06-04T00:20:02;13.00;96.60
11152;DHT22;5630;49.342;10.802;2023-06-04T00:22:28;12.90;96.60
11152;DHT22;5630;49.342;10.802;2023-06-04T00:24:54;12.90;96.50
11152;DHT22;5630;49.342;10.802;2023-06-04T00:27:19;12.90;96.70
11152;DHT22;5630;49.342;10.802;2023-06-04T00:29:45;12.80;96.60
11152;DHT22;5630;49.342;10.802;2023-06-04T00:32:10;12.80;96.60
11152;DHT22;5630;49.342;10.802;2023-06-04T00:34:36;12.80;96.80
11152;DHT22;5630;49.342;10.802;2023-06-04T00:37:01;12.70;96.90
11152;DHT22;5630;49.342;10.802;2023-06-04T00:39:27;12.70;97.10
11152;DHT22;5630;49.342;10.802;2023-06-04T00:41:53;12.70;97.20
11152;DHT22;5630;49.342;10.802;2023-06-04T00:44:19;12.70;97.10
11152;DHT22;5630;49.342;10.802;2023-06-04T00:46:47;12.60;97.00
11152;DHT22;5630;49.342;10.802;2023-06-04T00:49:13;12.60;96.90
11152;DHT22;5630;49.342;10.802;2023-06-04T00:51:38;12.50;96.90
11152;DHT22;5630;49.342;10.802;2023-06-04T00:54:04;12.50;96.90
11152;DHT22;5630;49.342;10.802;2023-06-04T00:56:35;12.50;96.90
11152;DHT22;5630;49.342;10.802;2023-06-04T00:59:03;12.50;96.80
11152;DHT22;5630;49.342;10.802;2023-06-04T01:01:39;12.40;96.50
11152;DHT22;5630;49.342;10.802;2023-06-04T01:04:12;12.40;96.70
11152;DHT22;5630;49.342;10.802;2023-06-04T01:06:43;12.40;96.50
11152;DHT22;5630;49.342;10.802;2023-06-04T01:09:10;12.40;96.90
11152;DHT22;5630;49.342;10.802;2023-06-04T01:11:40;12.30;97.20
11152;DHT22;5630;49.342;10.802;2023-06-04T01:14:08;12.30;97.20
11152;DHT22;5630;49.342;10.802;2023-06-04T01:16:49;12.20;97.40
11152;DHT22;5630;49.342;10.802;2023-06-04T01:22:32;12.20;97.40
11152;DHT22;5630;49.342;10.802;2023-06-04T01:25:03;12.20;97.50
11152;DHT22;5630;49.342;10.802;2023-06-04T01:27:29;12.10;97.30
11152;DHT22;5630;49.342;10.802;2023-06-04T01:29:56;12.10;97.20
11152;DHT22;5630;49.342;10.802;2023-06-04T01:32:26;12.10;97.40
11152;DHT22;5630;49.342;10.802;2023-06-04T01:34:52;12.10;97.70
11152;DHT22;5630;49.342;10.802;2023-06-04T01:37:18;12.10;97.60
11152;DHT22;5630;49.342;10.802;2023-06-04T01:39:43;12.10;97.70
11152;DHT22;5630;49.342;10.802;2023-06-04T01:42:09;12.10;97.70
11152;DHT22;5630;49.342;10.802;2023-06-04T01:44:35;12.00;97.50
11152;DHT22;5630;49.342;10.802;2023-06-04T01:47:01;12.00;97.60
11152;DHT22;5630;49.342;10.802;2023-06-04T01:49:26;12.00;97.40
11152;DHT22;5630;49.342;10.802;2023-06-04T01:51:52;12.00;96.90
11152;DHT22;5630;49.342;10.802;2023-06-04T01:54:18;12.00;96.90
11152;DHT22;5630;49.342;10.802;2023-06-04T01:56:43;12.00;96.90
11152;DHT22;5630;49.342;10.802;2023-06-04T01:59:09;11.90;97.30
11152;DHT22;5630;49.342;10.802;2023-06-04T02:01:37;11.90;97.30
11152;DHT22;5630;49.342;10.802;2023-06-04T02:04:03;11.90;97.60
11152;DHT22;5630;49.342;10.802;2023-06-04T02:06:28;11.80;97.70
11152;DHT22;5630;49.342;10.802;2023-06-04T02:08:55;11.70;97.50
11152;DHT22;5630;49.342;10.802;2023-06-04T02:11:21;11.70;97.70
11152;DHT22;5630;49.342;10.802;2023-06-04T02:13:46;11.70;97.50
11152;DHT22;5630;49.342;10.802;2023-06-04T02:16:12;11.70;97.90
11152;DHT22;5630;49.342;10.802;2023-06-04T02:18:38;11.70;97.80
11152;DHT22;5630;49.342;10.802;2023-06-04T02:21:03;11.60;97.90
11152;DHT22;5630;49.342;10.802;2023-06-04T02:23:29;11.60;97.90
11152;DHT22;5630;49.342;10.802;2023-06-04T02:25:54;11.60;97.80
11152;DHT22;5630;49.342;10.802;2023-06-04T02:28:20;11.50;98.10
11152;DHT22;5630;49.342;10.802;2023-06-04T02:30:46;11.50;98.20
11152;DHT22;5630;49.342;10.802;2023-06-04T02:33:12;11.50;98.30
11152;DHT22;5630;49.342;10.802;2023-06-04T02:35:38;11.50;98.30
11152;DHT22;5630;49.342;10.802;2023-06-04T02:38:04;11.50;98.30
11152;DHT22;5630;49.342;10.802;2023-06-04T02:40:30;11.50;98.30
11152;DHT22;5630;49.342;10.802;2023-06-04T02:42:56;11.40;98.20
11152;DHT22;5630;49.342;10.802;2023-06-04T02:45:24;11.40;98.40
11152;DHT22;5630;49.342;10.802;2023-06-04T02:47:50;11.40;98.50
11152;DHT22;5630;49.342;10.802;2023-06-04T02:50:16;11.40;98.50
11152;DHT22;5630;49.342;10.802;2023-06-04T02:52:42;11.30;98.60
11152;DHT22;5630;49.342;10.802;2023-06-04T02:55:08;11.30;98.40
11152;DHT22;5630;49.342;10.802;2023-06-04T02:57:40;11.30;98.70
11152;DHT22;5630;49.342;10.802;2023-06-04T03:00:07;11.20;98.70
11152;DHT22;5630;49.342;10.802;2023-06-04T03:02:42;11.20;98.70
11152;DHT22;5630;49.342;10.802;2023-06-04T03:05:09;11.20;99.00
11152;DHT22;5630;49.342;10.802;2023-06-04T03:07:36;11.10;99.20
11152;DHT22;5630;49.342;10.802;2023-06-04T03:10:02;11.10;99.00
11152;DHT22;5630;49.342;10.802;2023-06-04T03:12:29;11.00;99.20
11152;DHT22;5630;49.342;10.802;2023-06-04T03:14:54;11.00;99.30
11152;DHT22;5630;49.342;10.802;2023-06-04T03:17:20;11.00;99.50
11152;DHT22;5630;49.342;10.802;2023-06-04T03:19:46;11.00;99.60
11152;DHT22;5630;49.342;10.802;2023-06-04T03:22:13;11.00;99.80
11152;DHT22;5630;49.342;10.802;2023-06-04T03:24:40;10.90;99.70
11152;DHT22;5630;49.342;10.802;2023-06-04T03:27:07;10.90;99.70
11152;DHT22;5630;49.342;10.802;2023-06-04T03:29:33;10.90;99.90
11152;DHT22;5630;49.342;10.802;2023-06-04T03:32:00;10.90;99.90
11152;DHT22;5630;49.342;10.802;2023-06-04T03:34:26;10.90;99.70
11152;DHT22;5630;49.342;10.802;2023-06-04T03:36:52;10.90;99.90
11152;DHT22;5630;49.342;10.802;2023-06-04T03:39:18;10.90;99.90
11152;DHT22;5630;49.342;10.802;2023-06-04T03:41:43;10.80;99.90
11152;DHT22;5630;49.342;10.802;2023-06-04T03:44:09;10.80;99.90
11152;DHT22;5630;49.342;10.802;2023-06-04T03:46:35;10.80;99.90
11152;DHT22;5630;49.342;10.802;2023-06-04T03:49:01;10.80;99.90
11152;DHT22;5630;49.342;10.802;2023-06-04T03:51:27;10.80;99.90
11152;DHT22;5630;49.342;10.802;2023-06-04T03:53:52;10.80;99.90
11152;DHT22;5630;49.342;10.802;2023-06-04T03:56:18;10.70;99.90
11152;DHT22;5630;49.342;10.802;2023-06-04T03:58:44;10.80;99.90
11152;DHT22;5630;49.342;10.802;2023-06-04T04:01:10;10.70;99.90
11152;DHT22;5630;49.342;10.802;2023-06-04T04:03:38;10.70;99.90
11152;DHT22;5630;49.342;10.802;2023-06-04T04:06:04;10.70;99.90
11152;DHT22;5630;49.342;10.802;2023-06-04T04:08:29;10.60;99.90
11152;DHT22;5630;49.342;10.802;2023-06-04T04:13:22;10.60;99.90
11152;DHT22;5630;49.342;10.802;2023-06-04T04:15:48;10.60;99.90
11152;DHT22;5630;49.342;10.802;2023-06-04T04:18:21;10.60;99.90
11152;DHT22;5630;49.342;10.802;2023-06-04T04:20:46;10.60;99.90
11152;DHT22;5630;49.342;10.802;2023-06-04T04:23:13;10.60;99.90
11152;DHT22;5630;49.342;10.802;2023-06-04T04:25:39;10.60;99.90
11152;DHT22;5630;49.342;10.802;2023-06-04T04:28:04;10.60;99.90
11152;DHT22;5630;49.342;10.802;2023-06-04T04:30:34;10.60;99.90
11152;DHT22;5630;49.342;10.802;2023-06-04T04:33:01;10.60;99.90
11152;DHT22;5630;49.342;10.802;2023-06-04T04:35:27;10.60;99.90
11152;DHT22;5630;49.342;10.802;2023-06-04T04:37:54;10.60;99.90
11152;DHT22;5630;49.342;10.802;2023-06-04T04:40:20;10.60;99.90
11152;DHT22;5630;49.342;10.802;2023-06-04T04:42:46;10.70;99.90
11152;DHT22;5630;49.342;10.802;2023-06-04T04:45:11;10.70;99.90
11152;DHT22;5630;49.342;10.802;2023-06-04T04:47:37;10.70;99.90
11152;DHT22;5630;49.342;10.802;2023-06-04T04:50:04;10.80;99.90
11152;DHT22;5630;49.342;10.802;2023-06-04T04:52:30;10.80;99.90
11152;DHT22;5630;49.342;10.802;2023-06-04T04:54:55;10.80;99.90
11152;DHT22;5630;49.342;10.802;2023-06-04T04:57:23;10.80;99.90
11152;DHT22;5630;49.342;10.802;2023-06-04T04:59:49;10.90;99.90
11152;DHT22;5630;49.342;10.802;2023-06-04T05:02:15;10.90;99.90
11152;DHT22;5630;49.342;10.802;2023-06-04T05:04:40;11.00;99.90
11152;DHT22;5630;49.342;10.802;2023-06-04T05:07:06;11.10;99.90
11152;DHT22;5630;49.342;10.802;2023-06-04T05:09:32;11.10;99.90
11152;DHT22;5630;49.342;10.802;2023-06-04T05:11:57;11.10;99.90
11152;DHT22;5630;49.342;10.802;2023-06-04T05:14:23;11.20;99.90
11152;DHT22;5630;49.342;10.802;2023-06-04T05:16:49;11.30;99.90
11152;DHT22;5630;49.342;10.802;2023-06-04T05:19:16;11.30;99.90
11152;DHT22;5630;49.342;10.802;2023-06-04T05:21:42;11.40;99.90
11152;DHT22;5630;49.342;10.802;2023-06-04T05:24:09;11.50;99.90
11152;DHT22;5630;49.342;10.802;2023-06-04T05:26:35;11.50;99.90
11152;DHT22;5630;49.342;10.802;2023-06-04T05:29:00;11.60;99.90
11152;DHT22;5630;49.342;10.802;2023-06-04T05:31:27;11.60;99.90
11152;DHT22;5630;49.342;10.802;2023-06-04T05:33:52;11.70;99.90
11152;DHT22;5630;49.342;10.802;2023-06-04T05:36:19;11.70;99.90
11152;DHT22;5630;49.342;10.802;2023-06-04T05:38:45;11.70;99.90
11152;DHT22;5630;49.342;10.802;2023-06-04T05:41:10;11.80;99.90
11152;DHT22;5630;49.342;10.802;2023-06-04T05:43:37;11.80;99.90
11152;DHT22;5630;49.342;10.802;2023-06-04T05:46:03;11.90;99.90
11152;DHT22;5630;49.342;10.802;2023-06-04T05:48:29;11.90;99.90
11152;DHT22;5630;49.342;10.802;2023-06-04T05:50:54;11.90;99.90
11152;DHT22;5630;49.342;10.802;2023-06-04T05:53:21;12.10;99.90
11152;DHT22;5630;49.342;10.802;2023-06-04T05:55:47;12.10;99.90
11152;DHT22;5630;49.342;10.802;2023-06-04T05:58:12;12.20;99.90
11152;DHT22;5630;49.342;10.802;2023-06-04T06:00:38;12.20;99.90
11152;DHT22;5630;49.342;10.802;2023-06-04T06:03:03;12.30;99.90
11152;DHT22;5630;49.342;10.802;2023-06-04T06:05:31;12.40;99.90
11152;DHT22;5630;49.342;10.802;2023-06-04T06:07:57;12.40;99.90
11152;DHT22;5630;49.342;10.802;2023-06-04T06:10:22;12.60;99.90
11152;DHT22;5630;49.342;10.802;2023-06-04T06:12:48;12.60;99.90
11152;DHT22;5630;49.342;10.802;2023-06-04T06:15:14;12.70;99.90
11152;DHT22;5630;49.342;10.802;2023-06-04T06:17:40;12.80;99.90
11152;DHT22;5630;49.342;10.802;2023-06-04T06:20:06;13.00;99.90
11152;DHT22;5630;49.342;10.802;2023-06-04T06:25:01;13.10;99.90
11152;DHT22;5630;49.342;10.802;2023-06-04T06:27:26;13.50;99.90
11152;DHT22;5630;49.342;10.802;2023-06-04T06:29:52;13.70;99.90
11152;DHT22;5630;49.342;10.802;2023-06-04T06:32:17;13.90;99.90
11152;DHT22;5630;49.342;10.802;2023-06-04T06:37:09;14.00;99.90
11152;DHT22;5630;49.342;10.802;2023-06-04T06:39:35;14.60;99.90
11152;DHT22;5630;49.342;10.802;2023-06-04T06:42:00;14.90;99.90
11152;DHT22;5630;49.342;10.802;2023-06-04T06:44:26;15.30;99.90
11152;DHT22;5630;49.342;10.802;2023-06-04T06:49:18;15.40;99.90
11152;DHT22;5630;49.342;10.802;2023-06-04T06:51:43;16.00;99.90
11152;DHT22;5630;49.342;10.802;2023-06-04T06:56:35;16.60;99.90
11152;DHT22;5630;49.342;10.802;2023-06-04T06:59:01;16.80;99.90
11152;DHT22;5630;49.342;10.802;2023-06-04T07:01:26;17.00;99.90
11152;DHT22;5630;49.342;10.802;2023-06-04T07:03:52;17.30;99.90
11152;DHT22;5630;49.342;10.802;2023-06-04T07:06:18;17.40;99.90
11152;DHT22;5630;49.342;10.802;2023-06-04T07:08:43;17.50;99.90
11152;DHT22;5630;49.342;10.802;2023-06-04T07:11:09;17.80;99.90
11152;DHT22;5630;49.342;10.802;2023-06-04T07:13:38;18.10;99.90
11152;DHT22;5630;49.342;10.802;2023-06-04T07:16:04;18.30;99.90
11152;DHT22;5630;49.342;10.802;2023-06-04T07:18:29;18.40;99.70
11152;DHT22;5630;49.342;10.802;2023-06-04T07:20:55;18.70;99.90
11152;DHT22;5630;49.342;10.802;2023-06-04T07:23:20;18.80;99.80
11152;DHT22;5630;49.342;10.802;2023-06-04T07:25:46;19.00;99.50
11152;DHT22;5630;49.342;10.802;2023-06-04T07:28:13;19.10;97.80
11152;DHT22;5630;49.342;10.802;2023-06-04T07:30:38;19.10;98.70
11152;DHT22;5630;49.342;10.802;2023-06-04T07:33:04;19.40;96.70
11152;DHT22;5630;49.342;10.802;2023-06-04T07:35:30;19.50;98.20
11152;DHT22;5630;49.342;10.802;2023-06-04T07:37:55;19.80;98.00
11152;DHT22;5630;49.342;10.802;2023-06-04T07:40:21;19.90;98.00
11152;DHT22;5630;49.342;10.802;2023-06-04T07:42:47;19.90;96.80
11152;DHT22;5630;49.342;10.802;2023-06-04T07:45:14;20.20;97.40
11152;DHT22;5630;49.342;10.802;2023-06-04T07:47:40;20.30;96.80
11152;DHT22;5630;49.342;10.802;2023-06-04T07:50:06;20.40;96.20
11152;DHT22;5630;49.342;10.802;2023-06-04T07:52:32;20.40;97.00
11152;DHT22;5630;49.342;10.802;2023-06-04T07:54:59;20.60;96.80
11152;DHT22;5630;49.342;10.802;2023-06-04T07:57:25;20.80;96.60
11152;DHT22;5630;49.342;10.802;2023-06-04T07:59:51;21.00;96.20
11152;DHT22;5630;49.342;10.802;2023-06-04T08:02:17;21.20;96.20
11152;DHT22;5630;49.342;10.802;2023-06-04T08:04:43;21.40;96.20
11152;DHT22;5630;49.342;10.802;2023-06-04T08:07:09;21.20;95.60
11152;DHT22;5630;49.342;10.802;2023-06-04T08:09:35;21.20;95.50
11152;DHT22;5630;49.342;10.802;2023-06-04T08:12:00;21.00;96.50
11152;DHT22;5630;49.342;10.802;2023-06-04T08:14:26;21.00;96.00
11152;DHT22;5630;49.342;10.802;2023-06-04T08:16:55;21.00;96.90
11152;DHT22;5630;49.342;10.802;2023-06-04T08:19:21;21.20;97.20
11152;DHT22;5630;49.342;10.802;2023-06-04T08:21:46;21.50;96.80
11152;DHT22;5630;49.342;10.802;2023-06-04T08:24:13;21.60;96.40
11152;DHT22;5630;49.342;10.802;2023-06-04T08:26:38;21.70;95.70
11152;DHT22;5630;49.342;10.802;2023-06-04T08:29:05;21.70;96.00
11152;DHT22;5630;49.342;10.802;2023-06-04T08:31:31;21.90;94.10
11152;DHT22;5630;49.342;10.802;2023-06-04T08:33:56;21.60;95.20
11152;DHT22;5630;49.342;10.802;2023-06-04T08:36:22;21.80;95.40
11152;DHT22;5630;49.342;10.802;2023-06-04T08:38:48;21.90;95.80
11152;DHT22;5630;49.342;10.802;2023-06-04T08:41:34;21.90;95.40
11152;DHT22;5630;49.342;10.802;2023-06-04T08:44:05;22.00;95.20
11152;DHT22;5630;49.342;10.802;2023-06-04T08:46:32;22.20;93.80
11152;DHT22;5630;49.342;10.802;2023-06-04T08:49:00;22.20;94.50
11152;DHT22;5630;49.342;10.802;2023-06-04T08:51:33;22.40;93.30
11152;DHT22;5630;49.342;10.802;2023-06-04T08:53:59;22.50;93.50
11152;DHT22;5630;49.342;10.802;2023-06-04T08:56:25;22.60;93.60
11152;DHT22;5630;49.342;10.802;2023-06-04T08:58:51;22.70;93.90
11152;DHT22;5630;49.342;10.802;2023-06-04T09:01:18;22.90;93.40
11152;DHT22;5630;49.342;10.802;2023-06-04T09:03:44;22.90;92.60
11152;DHT22;5630;49.342;10.802;2023-06-04T09:06:11;22.80;92.70
11152;DHT22;5630;49.342;10.802;2023-06-04T09:08:39;22.90;93.60
11152;DHT22;5630;49.342;10.802;2023-06-04T09:11:09;23.10;93.20
11152;DHT22;5630;49.342;10.802;2023-06-04T09:13:36;23.30;92.60
11152;DHT22;5630;49.342;10.802;2023-06-04T09:16:03;23.10;91.80
11152;DHT22;5630;49.342;10.802;2023-06-04T09:18:29;23.30;92.30
11152;DHT22;5630;49.342;10.802;2023-06-04T09:23:27;23.70;92.80
11152;DHT22;5630;49.342;10.802;2023-06-04T09:25:53;23.70;90.40
11152;DHT22;5630;49.342;10.802;2023-06-04T09:28:20;23.50;90.50
11152;DHT22;5630;49.342;10.802;2023-06-04T09:30:52;23.80;91.60
11152;DHT22;5630;49.342;10.802;2023-06-04T09:33:18;23.80;90.90
11152;DHT22;5630;49.342;10.802;2023-06-04T09:35:55;23.80;88.00
11152;DHT22;5630;49.342;10.802;2023-06-04T09:38:21;23.80;91.40
11152;DHT22;5630;49.342;10.802;2023-06-04T09:40:47;23.90;91.10
11152;DHT22;5630;49.342;10.802;2023-06-04T09:43:21;24.10;90.30
11152;DHT22;5630;49.342;10.802;2023-06-04T09:45:48;23.90;91.00
11152;DHT22;5630;49.342;10.802;2023-06-04T09:48:21;24.10;89.40
11152;DHT22;5630;49.342;10.802;2023-06-04T09:50:47;24.10;88.90
11152;DHT22;5630;49.342;10.802;2023-06-04T09:53:19;24.10;88.30
11152;DHT22;5630;49.342;10.802;2023-06-04T09:56:02;24.20;91.70
11152;DHT22;5630;49.342;10.802;2023-06-04T09:58:29;24.40;90.90
11152;DHT22;5630;49.342;10.802;2023-06-04T10:00:57;24.50;90.40
11152;DHT22;5630;49.342;10.802;2023-06-04T10:03:31;24.90;88.30
11152;DHT22;5630;49.342;10.802;2023-06-04T10:05:59;24.70;89.50
11152;DHT22;5630;49.342;10.802;2023-06-04T10:08:29;24.70;90.90
11152;DHT22;5630;49.342;10.802;2023-06-04T10:10:58;24.80;86.20
11152;DHT22;5630;49.342;10.802;2023-06-04T10:13:30;24.40;85.90
11152;DHT22;5630;49.342;10.802;2023-06-04T10:15:57;24.60;87.20
11152;DHT22;5630;49.342;10.802;2023-06-04T10:18:24;24.90;88.30
11152;DHT22;5630;49.342;10.802;2023-06-04T10:20:53;25.10;88.80
11152;DHT22;5630;49.342;10.802;2023-06-04T10:23:20;25.10;88.40
11152;DHT22;5630;49.342;10.802;2023-06-04T10:25:49;25.20;87.30
11152;DHT22;5630;49.342;10.802;2023-06-04T10:28:15;25.50;87.30
11152;DHT22;5630;49.342;10.802;2023-06-04T10:30:41;25.80;84.00
11152;DHT22;5630;49.342;10.802;2023-06-04T10:33:06;25.80;87.60
11152;DHT22;5630;49.342;10.802;2023-06-04T10:35:36;25.80;83.10
11152;DHT22;5630;49.342;10.802;2023-06-04T10:38:09;25.90;83.80
11152;DHT22;5630;49.342;10.802;2023-06-04T10:40:36;26.00;84.50
11152;DHT22;5630;49.342;10.802;2023-06-04T10:43:12;25.60;83.20
11152;DHT22;5630;49.342;10.802;2023-06-04T10:45:39;26.10;86.60
11152;DHT22;5630;49.342;10.802;2023-06-04T10:48:07;26.10;81.00
11152;DHT22;5630;49.342;10.802;2023-06-04T10:50:34;26.30;83.70
11152;DHT22;5630;49.342;10.802;2023-06-04T10:53:01;26.50;84.00
11152;DHT22;5630;49.342;10.802;2023-06-04T10:55:31;26.40;80.50
11152;DHT22;5630;49.342;10.802;2023-06-04T10:57:59;26.50;80.70
11152;DHT22;5630;49.342;10.802;2023-06-04T11:00:37;26.40;81.60
11152;DHT22;5630;49.342;10.802;2023-06-04T11:03:05;26.30;80.80
11152;DHT22;5630;49.342;10.802;2023-06-04T11:05:40;26.30;79.40
11152;DHT22;5630;49.342;10.802;2023-06-04T11:08:06;26.30;79.90
11152;DHT22;5630;49.342;10.802;2023-06-04T11:10:34;26.20;79.80
11152;DHT22;5630;49.342;10.802;2023-06-04T11:13:01;26.40;79.40
11152;DHT22;5630;49.342;10.802;2023-06-04T11:15:46;25.90;78.20
11152;DHT22;5630;49.342;10.802;2023-06-04T11:18:18;26.30;82.20
11152;DHT22;5630;49.342;10.802;2023-06-04T11:20:44;26.40;79.40
11152;DHT22;5630;49.342;10.802;2023-06-04T11:23:12;26.60;78.40
11152;DHT22;5630;49.342;10.802;2023-06-04T11:25:38;26.50;80.00
11152;DHT22;5630;49.342;10.802;2023-06-04T11:28:04;26.70;82.10
11152;DHT22;5630;49.342;10.802;2023-06-04T11:30:29;26.20;75.20
11152;DHT22;5630;49.342;10.802;2023-06-04T11:33:05;26.30;78.10
11152;DHT22;5630;49.342;10.802;2023-06-04T11:35:41;26.20;78.60
11152;DHT22;5630;49.342;10.802;2023-06-04T11:38:07;26.20;81.80
11152;DHT22;5630;49.342;10.802;2023-06-04T11:40:34;26.30;79.40
11152;DHT22;5630;49.342;10.802;2023-06-04T11:43:00;26.50;79.80
11152;DHT22;5630;49.342;10.802;2023-06-04T11:45:27;26.40;78.70
11152;DHT22;5630;49.342;10.802;2023-06-04T11:47:56;26.50;78.50
11152;DHT22;5630;49.342;10.802;2023-06-04T11:50:26;26.70;79.10
11152;DHT22;5630;49.342;10.802;2023-06-04T11:52:52;26.80;77.70
11152;DHT22;5630;49.342;10.802;2023-06-04T11:55:18;26.80;76.30
11152;DHT22;5630;49.342;10.802;2023-06-04T11:57:47;26.90;75.00
11152;DHT22;5630;49.342;10.802;2023-06-04T12:00:14;26.70;72.60
11152;DHT22;5630;49.342;10.802;2023-06-04T12:02:54;27.00;74.80
11152;DHT22;5630;49.342;10.802;2023-06-04T12:07:52;26.90;73.80
11152;DHT22;5630;49.342;10.802;2023-06-04T12:10:18;27.10;76.10
11152;DHT22;5630;49.342;10.802;2023-06-04T12:12:44;27.30;73.20
11152;DHT22;5630;49.342;10.802;2023-06-04T12:15:10;26.90;75.80
11152;DHT22;5630;49.342;10.802;2023-06-04T12:17:36;26.90;78.60
11152;DHT22;5630;49.342;10.802;2023-06-04T12:20:05;26.90;77.90
11152;DHT22;5630;49.342;10.802;2023-06-04T12:22:31;27.20;77.40
11152;DHT22;5630;49.342;10.802;2023-06-04T12:24:57;27.40;78.50
11152;DHT22;5630;49.342;10.802;2023-06-04T12:27:26;27.50;78.80
11152;DHT22;5630;49.342;10.802;2023-06-04T12:29:58;27.50;74.10
11152;DHT22;5630;49.342;10.802;2023-06-04T12:32:24;27.50;72.60
11152;DHT22;5630;49.342;10.802;2023-06-04T12:34:50;27.20;75.60
11152;DHT22;5630;49.342;10.802;2023-06-04T12:37:15;27.20;72.90
11152;DHT22;5630;49.342;10.802;2023-06-04T12:39:41;27.10;74.30
11152;DHT22;5630;49.342;10.802;2023-06-04T12:42:08;27.10;75.50
11152;DHT22;5630;49.342;10.802;2023-06-04T12:44:39;27.10;74.10
11152;DHT22;5630;49.342;10.802;2023-06-04T12:47:05;27.10;73.60
11152;DHT22;5630;49.342;10.802;2023-06-04T12:49:31;27.30;71.90
11152;DHT22;5630;49.342;10.802;2023-06-04T12:51:56;27.50;75.90
11152;DHT22;5630;49.342;10.802;2023-06-04T12:54:22;27.30;71.60
11152;DHT22;5630;49.342;10.802;2023-06-04T12:56:48;27.60;73.90
11152;DHT22;5630;49.342;10.802;2023-06-04T12:59:15;27.60;74.30
11152;DHT22;5630;49.342;10.802;2023-06-04T13:01:40;27.60;73.50
11152;DHT22;5630;49.342;10.802;2023-06-04T13:04:06;27.60;70.00
11152;DHT22;5630;49.342;10.802;2023-06-04T13:06:34;27.20;69.30
11152;DHT22;5630;49.342;10.802;2023-06-04T13:09:01;27.50;72.90
11152;DHT22;5630;49.342;10.802;2023-06-04T13:11:26;27.30;74.30
11152;DHT22;5630;49.342;10.802;2023-06-04T13:13:52;27.40;73.90
11152;DHT22;5630;49.342;10.802;2023-06-04T13:16:18;27.30;72.50
11152;DHT22;5630;49.342;10.802;2023-06-04T13:18:44;27.20;71.10
11152;DHT22;5630;49.342;10.802;2023-06-04T13:21:09;27.30;72.50
11152;DHT22;5630;49.342;10.802;2023-06-04T13:23:35;26.80;69.40
11152;DHT22;5630;49.342;10.802;2023-06-04T13:26:00;27.00;72.90
11152;DHT22;5630;49.342;10.802;2023-06-04T13:28:26;26.90;72.70
11152;DHT22;5630;49.342;10.802;2023-06-04T13:30:52;27.00;73.00
11152;DHT22;5630;49.342;10.802;2023-06-04T13:33:18;27.40;71.10
11152;DHT22;5630;49.342;10.802;2023-06-04T13:35:44;27.50;73.80
11152;DHT22;5630;49.342;10.802;2023-06-04T13:38:10;27.30;72.20
11152;DHT22;5630;49.342;10.802;2023-06-04T13:40:38;27.10;71.70
11152;DHT22;5630;49.342;10.802;2023-06-04T13:43:04;27.00;73.30
11152;DHT22;5630;49.342;10.802;2023-06-04T13:45:31;27.00;74.40
11152;DHT22;5630;49.342;10.802;2023-06-04T13:47:57;27.00;72.10
11152;DHT22;5630;49.342;10.802;2023-06-04T13:50:28;27.10;70.20
11152;DHT22;5630;49.342;10.802;2023-06-04T13:52:54;27.20;67.20
11152;DHT22;5630;49.342;10.802;2023-06-04T13:55:19;26.90;68.80
11152;DHT22;5630;49.342;10.802;2023-06-04T13:57:45;27.00;70.80
11152;DHT22;5630;49.342;10.802;2023-06-04T14:00:11;26.90;71.90
11152;DHT22;5630;49.342;10.802;2023-06-04T14:02:39;26.70;72.00
11152;DHT22;5630;49.342;10.802;2023-06-04T14:05:05;26.70;72.10
11152;DHT22;5630;49.342;10.802;2023-06-04T14:07:31;26.50;72.10
11152;DHT22;5630;49.342;10.802;2023-06-04T14:09:56;26.50;73.30
11152;DHT22;5630;49.342;10.802;2023-06-04T14:12:23;26.60;72.10
11152;DHT22;5630;49.342;10.802;2023-06-04T14:14:49;26.70;69.90
11152;DHT22;5630;49.342;10.802;2023-06-04T14:17:15;26.60;71.20
11152;DHT22;5630;49.342;10.802;2023-06-04T14:19:41;26.80;71.80
11152;DHT22;5630;49.342;10.802;2023-06-04T14:22:06;26.60;69.20
11152;DHT22;5630;49.342;10.802;2023-06-04T14:24:32;26.30;69.50
11152;DHT22;5630;49.342;10.802;2023-06-04T14:26:58;26.60;69.90
11152;DHT22;5630;49.342;10.802;2023-06-04T14:29:23;26.90;71.50
11152;DHT22;5630;49.342;10.802;2023-06-04T14:31:49;26.60;72.40
11152;DHT22;5630;49.342;10.802;2023-06-04T14:34:15;26.80;70.90
11152;DHT22;5630;49.342;10.802;2023-06-04T14:36:40;26.70;68.80
11152;DHT22;5630;49.342;10.802;2023-06-04T14:39:06;26.60;68.50
11152;DHT22;5630;49.342;10.802;2023-06-04T14:41:32;26.80;69.40
11152;DHT22;5630;49.342;10.802;2023-06-04T14:43:57;26.50;70.00
11152;DHT22;5630;49.342;10.802;2023-06-04T14:46:23;26.50;67.30
11152;DHT22;5630;49.342;10.802;2023-06-04T14:48:49;26.40;68.70
11152;DHT22;5630;49.342;10.802;2023-06-04T14:51:15;26.40;70.90
11152;DHT22;5630;49.342;10.802;2023-06-04T14:53:41;26.40;69.70
11152;DHT22;5630;49.342;10.802;2023-06-04T14:56:06;26.20;69.50
11152;DHT22;5630;49.342;10.802;2023-06-04T14:58:32;26.40;69.10
11152;DHT22;5630;49.342;10.802;2023-06-04T15:01:01;26.40;71.80
11152;DHT22;5630;49.342;10.802;2023-06-04T15:03:29;26.20;68.20
11152;DHT22;5630;49.342;10.802;2023-06-04T15:05:55;26.30;66.40
11152;DHT22;5630;49.342;10.802;2023-06-04T15:08:21;26.30;67.70
11152;DHT22;5630;49.342;10.802;2023-06-04T15:10:47;26.20;70.40
11152;DHT22;5630;49.342;10.802;2023-06-04T15:13:12;26.20;71.10
11152;DHT22;5630;49.342;10.802;2023-06-04T15:15:38;26.10;69.40
11152;DHT22;5630;49.342;10.802;2023-06-04T15:18:04;26.10;68.50
11152;DHT22;5630;49.342;10.802;2023-06-04T15:20:32;26.00;68.80
11152;DHT22;5630;49.342;10.802;2023-06-04T15:22:57;26.00;69.10
11152;DHT22;5630;49.342;10.802;2023-06-04T15:25:23;25.90;67.70
11152;DHT22;5630;49.342;10.802;2023-06-04T15:27:49;25.60;69.10
11152;DHT22;5630;49.342;10.802;2023-06-04T15:30:14;25.40;71.80
11152;DHT22;5630;49.342;10.802;2023-06-04T15:32:40;25.40;70.90
11152;DHT22;5630;49.342;10.802;2023-06-04T15:35:07;25.30;70.30
11152;DHT22;5630;49.342;10.802;2023-06-04T15:37:32;25.30;73.50
11152;DHT22;5630;49.342;10.802;2023-06-04T15:39:58;25.30;71.90
11152;DHT22;5630;49.342;10.802;2023-06-04T15:42:26;25.30;70.20
11152;DHT22;5630;49.342;10.802;2023-06-04T15:44:51;25.20;71.10
11152;DHT22;5630;49.342;10.802;2023-06-04T15:47:17;25.20;71.30